sensor_id;sensor_type;location;lat;lon;timestamp;P1;durP1;ratioP1;P2;durP2;ratioP2
84984;SDS011;75299;50.018;20.014;2024-02-16T00:01:00;59.95;;;35.20;;
84984;SDS011;75299;50.018;20.014;2024-02-16T00:04:18;58.10;;;33.33;;
84984;SDS011;75299;50.018;20.014;2024-02-16T00:07:36;62.30;;;32.73;;
84984;SDS011;75299;50.018;20.014;2024-02-16T00:10:55;52.43;;;30.70;;
84984;SDS011;75299;50.018;20.014;2024-02-16T00:14:13;54.30;;;32.43;;
84984;SDS011;75299;50.018;20.014;2024-02-16T00:17:31;56.03;;;32.10;;
84984;SDS011;75299;50.018;20.014;2024-02-16T00:20:49;58.50;;;34.85;;
84984;SDS011;75299;50.018;20.014;2024-02-16T00:24:07;60.03;;;35.75;;
84984;SDS011;75299;50.018;20.014;2024-02-16T00:27:26;64.08;;;36.85;;
84984;SDS011;75299;50.018;20.014;2024-02-16T00:30:43;67.20;;;38.08;;
84984;SDS011;75299;50.018;20.014;2024-02-16T00:34:01;64.80;;;39.05;;
84984;SDS011;75299;50.018;20.014;2024-02-16T00:37:19;68.73;;;39.98;;
84984;SDS011;75299;50.018;20.014;2024-02-16T00:40:37;71.50;;;42.15;;
84984;SDS011;75299;50.018;20.014;2024-02-16T00:43:55;68.10;;;40.45;;
84984;SDS011;75299;50.018;20.014;2024-02-16T00:47:13;65.98;;;38.00;;
84984;SDS011;75299;50.018;20.014;2024-02-16T00:50:31;63.35;;;36.33;;
84984;SDS011;75299;50.018;20.014;2024-02-16T00:53:51;66.65;;;39.03;;
84984;SDS011;75299;50.018;20.014;2024-02-16T00:57:09;61.18;;;37.58;;
84984;SDS011;75299;50.018;20.014;2024-02-16T01:00:26;67.38;;;38.93;;
84984;SDS011;75299;50.018;20.014;2024-02-16T01:03:45;55.95;;;34.53;;
84984;SDS011;75299;50.018;20.014;2024-02-16T01:07:03;65.63;;;37.30;;
84984;SDS011;75299;50.018;20.014;2024-02-16T01:10:21;64.33;;;40.00;;
84984;SDS011;75299;50.018;20.014;2024-02-16T01:13:38;70.23;;;39.55;;
84984;SDS011;75299;50.018;20.014;2024-02-16T01:16:56;68.90;;;39.75;;
84984;SDS011;75299;50.018;20.014;2024-02-16T01:20:15;71.58;;;42.05;;
84984;SDS011;75299;50.018;20.014;2024-02-16T01:23:33;72.33;;;43.48;;
84984;SDS011;75299;50.018;20.014;2024-02-16T01:26:51;68.30;;;42.25;;
84984;SDS011;75299;50.018;20.014;2024-02-16T01:30:10;71.90;;;42.80;;
84984;SDS011;75299;50.018;20.014;2024-02-16T01:33:29;73.55;;;42.70;;
84984;SDS011;75299;50.018;20.014;2024-02-16T01:36:47;73.50;;;42.18;;
84984;SDS011;75299;50.018;20.014;2024-02-16T01:40:06;63.95;;;40.55;;
84984;SDS011;75299;50.018;20.014;2024-02-16T01:43:26;65.10;;;38.55;;
84984;SDS011;75299;50.018;20.014;2024-02-16T01:46:44;59.00;;;35.80;;
84984;SDS011;75299;50.018;20.014;2024-02-16T01:50:02;63.35;;;38.30;;
84984;SDS011;75299;50.018;20.014;2024-02-16T01:53:21;71.55;;;41.63;;
84984;SDS011;75299;50.018;20.014;2024-02-16T01:56:39;75.40;;;43.03;;
84984;SDS011;75299;50.018;20.014;2024-02-16T01:59:59;76.78;;;43.50;;
84984;SDS011;75299;50.018;20.014;2024-02-16T02:03:18;72.83;;;42.65;;
84984;SDS011;75299;50.018;20.014;2024-02-16T02:06:36;68.55;;;40.58;;
84984;SDS011;75299;50.018;20.014;2024-02-16T02:09:54;81.35;;;44.90;;
84984;SDS011;75299;50.018;20.014;2024-02-16T02:13:12;74.68;;;43.88;;
84984;SDS011;75299;50.018;20.014;2024-02-16T02:16:30;70.75;;;40.28;;
84984;SDS011;75299;50.018;20.014;2024-02-16T02:19:49;79.48;;;44.00;;
84984;SDS011;75299;50.018;20.014;2024-02-16T02:23:08;74.95;;;42.70;;
84984;SDS011;75299;50.018;20.014;2024-02-16T02:26:26;76.73;;;45.18;;
84984;SDS011;75299;50.018;20.014;2024-02-16T02:29:43;78.75;;;45.78;;
84984;SDS011;75299;50.018;20.014;2024-02-16T02:33:01;82.35;;;46.95;;
84984;SDS011;75299;50.018;20.014;2024-02-16T02:36:21;82.05;;;48.68;;
84984;SDS011;75299;50.018;20.014;2024-02-16T02:39:39;72.90;;;44.13;;
84984;SDS011;75299;50.018;20.014;2024-02-16T02:42:57;80.78;;;45.30;;
84984;SDS011;75299;50.018;20.014;2024-02-16T02:46:16;85.43;;;47.23;;
84984;SDS011;75299;50.018;20.014;2024-02-16T02:49:35;81.38;;;47.23;;
84984;SDS011;75299;50.018;20.014;2024-02-16T02:52:53;78.88;;;45.35;;
84984;SDS011;75299;50.018;20.014;2024-02-16T02:56:11;85.90;;;47.65;;
84984;SDS011;75299;50.018;20.014;2024-02-16T02:59:40;75.68;;;43.50;;
84984;SDS011;75299;50.018;20.014;2024-02-16T03:03:00;85.38;;;47.18;;
84984;SDS011;75299;50.018;20.014;2024-02-16T03:06:18;78.25;;;45.38;;
84984;SDS011;75299;50.018;20.014;2024-02-16T03:09:36;81.35;;;46.98;;
84984;SDS011;75299;50.018;20.014;2024-02-16T03:12:55;81.00;;;46.63;;
84984;SDS011;75299;50.018;20.014;2024-02-16T03:16:15;84.20;;;48.83;;
84984;SDS011;75299;50.018;20.014;2024-02-16T03:19:32;83.42;;;50.50;;
84984;SDS011;75299;50.018;20.014;2024-02-16T03:22:51;89.88;;;49.10;;
84984;SDS011;75299;50.018;20.014;2024-02-16T03:26:14;86.40;;;46.75;;
84984;SDS011;75299;50.018;20.014;2024-02-16T03:29:33;91.98;;;51.68;;
84984;SDS011;75299;50.018;20.014;2024-02-16T03:32:51;74.20;;;44.93;;
84984;SDS011;75299;50.018;20.014;2024-02-16T03:36:09;85.18;;;49.13;;
84984;SDS011;75299;50.018;20.014;2024-02-16T03:39:28;78.43;;;45.38;;
84984;SDS011;75299;50.018;20.014;2024-02-16T03:42:46;87.58;;;50.23;;
84984;SDS011;75299;50.018;20.014;2024-02-16T03:46:03;89.40;;;48.95;;
84984;SDS011;75299;50.018;20.014;2024-02-16T03:49:21;92.23;;;52.85;;
84984;SDS011;75299;50.018;20.014;2024-02-16T03:52:41;84.13;;;48.23;;
84984;SDS011;75299;50.018;20.014;2024-02-16T03:55:58;90.53;;;49.13;;
84984;SDS011;75299;50.018;20.014;2024-02-16T03:59:16;84.80;;;48.23;;
84984;SDS011;75299;50.018;20.014;2024-02-16T04:02:34;86.58;;;48.70;;
84984;SDS011;75299;50.018;20.014;2024-02-16T04:05:53;88.35;;;49.05;;
84984;SDS011;75299;50.018;20.014;2024-02-16T04:09:12;82.00;;;47.45;;
84984;SDS011;75299;50.018;20.014;2024-02-16T04:12:30;86.88;;;48.90;;
84984;SDS011;75299;50.018;20.014;2024-02-16T04:15:49;80.92;;;44.50;;
84984;SDS011;75299;50.018;20.014;2024-02-16T04:19:06;74.70;;;43.63;;
84984;SDS011;75299;50.018;20.014;2024-02-16T04:22:24;78.23;;;45.50;;
84984;SDS011;75299;50.018;20.014;2024-02-16T04:25:43;65.68;;;40.85;;
84984;SDS011;75299;50.018;20.014;2024-02-16T04:29:01;79.23;;;42.18;;
84984;SDS011;75299;50.018;20.014;2024-02-16T04:32:20;72.40;;;41.65;;
84984;SDS011;75299;50.018;20.014;2024-02-16T04:35:38;74.25;;;41.28;;
84984;SDS011;75299;50.018;20.014;2024-02-16T04:38:58;73.08;;;41.85;;
84984;SDS011;75299;50.018;20.014;2024-02-16T04:42:18;75.85;;;41.73;;
84984;SDS011;75299;50.018;20.014;2024-02-16T04:45:36;81.13;;;44.20;;
84984;SDS011;75299;50.018;20.014;2024-02-16T04:48:53;80.13;;;41.90;;
84984;SDS011;75299;50.018;20.014;2024-02-16T04:52:11;72.38;;;41.08;;
84984;SDS011;75299;50.018;20.014;2024-02-16T04:55:29;75.90;;;42.63;;
84984;SDS011;75299;50.018;20.014;2024-02-16T04:58:46;65.78;;;37.78;;
84984;SDS011;75299;50.018;20.014;2024-02-16T05:02:04;76.43;;;43.55;;
84984;SDS011;75299;50.018;20.014;2024-02-16T05:05:25;73.90;;;43.03;;
84984;SDS011;75299;50.018;20.014;2024-02-16T05:08:43;82.78;;;46.83;;
84984;SDS011;75299;50.018;20.014;2024-02-16T05:12:02;75.28;;;44.23;;
84984;SDS011;75299;50.018;20.014;2024-02-16T05:15:21;83.28;;;45.75;;
84984;SDS011;75299;50.018;20.014;2024-02-16T05:18:39;89.85;;;48.68;;
84984;SDS011;75299;50.018;20.014;2024-02-16T05:21:57;91.03;;;48.93;;
84984;SDS011;75299;50.018;20.014;2024-02-16T05:25:15;90.78;;;49.43;;
84984;SDS011;75299;50.018;20.014;2024-02-16T05:28:33;89.88;;;50.53;;
84984;SDS011;75299;50.018;20.014;2024-02-16T05:31:52;89.23;;;51.10;;
84984;SDS011;75299;50.018;20.014;2024-02-16T05:35:09;82.13;;;48.48;;
84984;SDS011;75299;50.018;20.014;2024-02-16T05:38:27;86.40;;;49.35;;
84984;SDS011;75299;50.018;20.014;2024-02-16T05:41:47;76.88;;;45.68;;
84984;SDS011;75299;50.018;20.014;2024-02-16T05:45:06;81.25;;;47.13;;
84984;SDS011;75299;50.018;20.014;2024-02-16T05:48:24;75.75;;;43.85;;
84984;SDS011;75299;50.018;20.014;2024-02-16T05:51:44;78.95;;;45.95;;
84984;SDS011;75299;50.018;20.014;2024-02-16T05:55:12;76.48;;;44.70;;
84984;SDS011;75299;50.018;20.014;2024-02-16T05:58:32;83.08;;;45.50;;
84984;SDS011;75299;50.018;20.014;2024-02-16T06:01:50;81.10;;;46.53;;
84984;SDS011;75299;50.018;20.014;2024-02-16T06:05:08;84.85;;;47.75;;
84984;SDS011;75299;50.018;20.014;2024-02-16T06:08:28;171.85;;;85.00;;
84984;SDS011;75299;50.018;20.014;2024-02-16T06:11:47;81.35;;;47.10;;
84984;SDS011;75299;50.018;20.014;2024-02-16T06:15:04;81.83;;;45.18;;
84984;SDS011;75299;50.018;20.014;2024-02-16T06:18:23;76.55;;;44.20;;
84984;SDS011;75299;50.018;20.014;2024-02-16T06:21:41;86.00;;;48.95;;
84984;SDS011;75299;50.018;20.014;2024-02-16T06:24:58;81.68;;;48.45;;
84984;SDS011;75299;50.018;20.014;2024-02-16T06:28:16;93.28;;;51.45;;
84984;SDS011;75299;50.018;20.014;2024-02-16T06:31:34;87.60;;;51.40;;
84984;SDS011;75299;50.018;20.014;2024-02-16T06:34:52;84.95;;;49.63;;
84984;SDS011;75299;50.018;20.014;2024-02-16T06:38:10;79.90;;;48.70;;
84984;SDS011;75299;50.018;20.014;2024-02-16T06:41:29;75.50;;;46.88;;
84984;SDS011;75299;50.018;20.014;2024-02-16T06:44:47;82.50;;;47.33;;
84984;SDS011;75299;50.018;20.014;2024-02-16T06:48:05;88.83;;;50.95;;
84984;SDS011;75299;50.018;20.014;2024-02-16T06:51:24;140.28;;;78.10;;
84984;SDS011;75299;50.018;20.014;2024-02-16T06:54:44;97.35;;;54.90;;
84984;SDS011;75299;50.018;20.014;2024-02-16T06:58:02;75.83;;;45.43;;
84984;SDS011;75299;50.018;20.014;2024-02-16T07:01:20;80.08;;;46.63;;
84984;SDS011;75299;50.018;20.014;2024-02-16T07:04:40;71.23;;;44.45;;
84984;SDS011;75299;50.018;20.014;2024-02-16T07:07:58;77.80;;;45.73;;
84984;SDS011;75299;50.018;20.014;2024-02-16T07:11:16;73.48;;;44.45;;
84984;SDS011;75299;50.018;20.014;2024-02-16T07:14:34;70.53;;;42.75;;
84984;SDS011;75299;50.018;20.014;2024-02-16T07:17:54;69.23;;;41.08;;
84984;SDS011;75299;50.018;20.014;2024-02-16T07:21:12;87.70;;;55.50;;
84984;SDS011;75299;50.018;20.014;2024-02-16T07:24:31;124.25;;;64.65;;
84984;SDS011;75299;50.018;20.014;2024-02-16T07:27:49;72.05;;;43.33;;
84984;SDS011;75299;50.018;20.014;2024-02-16T07:31:07;64.20;;;40.70;;
84984;SDS011;75299;50.018;20.014;2024-02-16T07:34:24;64.55;;;39.08;;
84984;SDS011;75299;50.018;20.014;2024-02-16T07:37:42;61.20;;;37.85;;
84984;SDS011;75299;50.018;20.014;2024-02-16T07:41:01;59.70;;;37.20;;
84984;SDS011;75299;50.018;20.014;2024-02-16T07:44:19;114.58;;;65.78;;
84984;SDS011;75299;50.018;20.014;2024-02-16T07:47:37;86.28;;;50.03;;
84984;SDS011;75299;50.018;20.014;2024-02-16T07:50:55;63.73;;;40.28;;
84984;SDS011;75299;50.018;20.014;2024-02-16T07:54:13;58.75;;;34.73;;
84984;SDS011;75299;50.018;20.014;2024-02-16T07:57:31;58.55;;;35.40;;
84984;SDS011;75299;50.018;20.014;2024-02-16T08:00:49;57.70;;;35.95;;
84984;SDS011;75299;50.018;20.014;2024-02-16T08:04:07;54.75;;;35.10;;
84984;SDS011;75299;50.018;20.014;2024-02-16T08:07:24;98.20;;;58.73;;
84984;SDS011;75299;50.018;20.014;2024-02-16T08:10:43;172.43;;;93.13;;
84984;SDS011;75299;50.018;20.014;2024-02-16T08:14:01;64.10;;;37.93;;
84984;SDS011;75299;50.018;20.014;2024-02-16T08:17:19;56.60;;;35.33;;
84984;SDS011;75299;50.018;20.014;2024-02-16T08:20:37;51.13;;;32.25;;
84984;SDS011;75299;50.018;20.014;2024-02-16T08:23:55;52.13;;;32.93;;
84984;SDS011;75299;50.018;20.014;2024-02-16T08:27:13;50.70;;;32.58;;
84984;SDS011;75299;50.018;20.014;2024-02-16T08:30:30;51.78;;;32.55;;
84984;SDS011;75299;50.018;20.014;2024-02-16T08:33:51;57.88;;;33.83;;
84984;SDS011;75299;50.018;20.014;2024-02-16T08:37:11;47.90;;;29.48;;
84984;SDS011;75299;50.018;20.014;2024-02-16T08:40:31;51.23;;;32.68;;
84984;SDS011;75299;50.018;20.014;2024-02-16T08:43:48;52.58;;;33.13;;
84984;SDS011;75299;50.018;20.014;2024-02-16T08:47:06;55.08;;;32.45;;
84984;SDS011;75299;50.018;20.014;2024-02-16T08:50:24;46.75;;;29.50;;
84984;SDS011;75299;50.018;20.014;2024-02-16T08:53:44;45.53;;;30.20;;
84984;SDS011;75299;50.018;20.014;2024-02-16T08:57:07;45.10;;;29.75;;
84984;SDS011;75299;50.018;20.014;2024-02-16T09:00:25;86.47;;;52.88;;
84984;SDS011;75299;50.018;20.014;2024-02-16T09:03:43;51.70;;;33.20;;
84984;SDS011;75299;50.018;20.014;2024-02-16T09:07:05;57.05;;;30.90;;
84984;SDS011;75299;50.018;20.014;2024-02-16T09:10:24;42.83;;;29.25;;
84984;SDS011;75299;50.018;20.014;2024-02-16T09:13:44;47.53;;;29.43;;
84984;SDS011;75299;50.018;20.014;2024-02-16T09:17:02;44.25;;;28.10;;
84984;SDS011;75299;50.018;20.014;2024-02-16T09:20:23;44.35;;;27.80;;
84984;SDS011;75299;50.018;20.014;2024-02-16T09:23:41;45.00;;;26.75;;
84984;SDS011;75299;50.018;20.014;2024-02-16T09:26:59;41.78;;;26.40;;
84984;SDS011;75299;50.018;20.014;2024-02-16T09:30:18;43.35;;;28.80;;
84984;SDS011;75299;50.018;20.014;2024-02-16T09:33:36;35.80;;;25.40;;
84984;SDS011;75299;50.018;20.014;2024-02-16T09:36:54;45.20;;;26.13;;
84984;SDS011;75299;50.018;20.014;2024-02-16T09:40:13;42.10;;;25.80;;
84984;SDS011;75299;50.018;20.014;2024-02-16T09:43:31;39.98;;;25.05;;
84984;SDS011;75299;50.018;20.014;2024-02-16T09:46:48;41.03;;;25.15;;
84984;SDS011;75299;50.018;20.014;2024-02-16T09:50:07;76.30;;;51.53;;
84984;SDS011;75299;50.018;20.014;2024-02-16T09:53:25;46.13;;;29.20;;
84984;SDS011;75299;50.018;20.014;2024-02-16T09:56:43;40.65;;;26.30;;
84984;SDS011;75299;50.018;20.014;2024-02-16T10:00:01;42.93;;;24.53;;
84984;SDS011;75299;50.018;20.014;2024-02-16T10:03:25;37.78;;;24.80;;
84984;SDS011;75299;50.018;20.014;2024-02-16T10:06:48;35.93;;;23.88;;
84984;SDS011;75299;50.018;20.014;2024-02-16T10:10:07;34.58;;;22.80;;
84984;SDS011;75299;50.018;20.014;2024-02-16T10:13:38;38.28;;;24.38;;
84984;SDS011;75299;50.018;20.014;2024-02-16T10:17:02;37.43;;;24.35;;
84984;SDS011;75299;50.018;20.014;2024-02-16T10:20:20;35.80;;;22.48;;
84984;SDS011;75299;50.018;20.014;2024-02-16T10:23:39;37.65;;;22.88;;
84984;SDS011;75299;50.018;20.014;2024-02-16T10:26:57;33.75;;;21.18;;
84984;SDS011;75299;50.018;20.014;2024-02-16T10:30:14;41.00;;;26.88;;
84984;SDS011;75299;50.018;20.014;2024-02-16T10:33:34;69.10;;;40.00;;
84984;SDS011;75299;50.018;20.014;2024-02-16T10:36:52;42.10;;;23.30;;
84984;SDS011;75299;50.018;20.014;2024-02-16T10:40:12;34.60;;;22.50;;
84984;SDS011;75299;50.018;20.014;2024-02-16T10:43:30;32.68;;;21.95;;
84984;SDS011;75299;50.018;20.014;2024-02-16T10:46:48;35.80;;;23.50;;
84984;SDS011;75299;50.018;20.014;2024-02-16T10:50:07;36.33;;;21.38;;
84984;SDS011;75299;50.018;20.014;2024-02-16T10:53:26;36.98;;;22.38;;
84984;SDS011;75299;50.018;20.014;2024-02-16T10:56:45;32.45;;;21.55;;
84984;SDS011;75299;50.018;20.014;2024-02-16T11:00:06;32.45;;;21.15;;
84984;SDS011;75299;50.018;20.014;2024-02-16T11:03:26;35.23;;;20.70;;
84984;SDS011;75299;50.018;20.014;2024-02-16T11:06:47;33.60;;;20.78;;
84984;SDS011;75299;50.018;20.014;2024-02-16T11:10:11;32.03;;;20.65;;
84984;SDS011;75299;50.018;20.014;2024-02-16T11:13:31;34.95;;;20.50;;
84984;SDS011;75299;50.018;20.014;2024-02-16T11:16:49;25.90;;;18.40;;
84984;SDS011;75299;50.018;20.014;2024-02-16T11:20:08;32.03;;;17.68;;
84984;SDS011;75299;50.018;20.014;2024-02-16T11:23:28;25.40;;;16.48;;
84984;SDS011;75299;50.018;20.014;2024-02-16T11:26:48;27.33;;;19.60;;
84984;SDS011;75299;50.018;20.014;2024-02-16T11:30:07;25.50;;;17.18;;
84984;SDS011;75299;50.018;20.014;2024-02-16T11:33:29;26.13;;;16.60;;
84984;SDS011;75299;50.018;20.014;2024-02-16T11:36:53;25.63;;;14.83;;
84984;SDS011;75299;50.018;20.014;2024-02-16T11:40:13;21.93;;;15.35;;
84984;SDS011;75299;50.018;20.014;2024-02-16T11:43:30;23.80;;;13.75;;
84984;SDS011;75299;50.018;20.014;2024-02-16T11:46:48;20.23;;;13.43;;
84984;SDS011;75299;50.018;20.014;2024-02-16T11:50:08;21.35;;;13.38;;
84984;SDS011;75299;50.018;20.014;2024-02-16T11:53:27;22.88;;;12.63;;
84984;SDS011;75299;50.018;20.014;2024-02-16T11:56:45;22.60;;;12.85;;
84984;SDS011;75299;50.018;20.014;2024-02-16T12:00:03;21.85;;;12.25;;
84984;SDS011;75299;50.018;20.014;2024-02-16T12:03:24;45.28;;;28.55;;
84984;SDS011;75299;50.018;20.014;2024-02-16T12:06:44;68.68;;;36.33;;
84984;SDS011;75299;50.018;20.014;2024-02-16T12:10:03;17.08;;;11.23;;
84984;SDS011;75299;50.018;20.014;2024-02-16T12:13:22;15.30;;;10.10;;
84984;SDS011;75299;50.018;20.014;2024-02-16T12:16:39;15.20;;;8.55;;
84984;SDS011;75299;50.018;20.014;2024-02-16T12:19:59;15.63;;;9.33;;
84984;SDS011;75299;50.018;20.014;2024-02-16T12:23:22;12.38;;;7.85;;
84984;SDS011;75299;50.018;20.014;2024-02-16T12:26:39;15.33;;;7.75;;
84984;SDS011;75299;50.018;20.014;2024-02-16T12:29:57;16.70;;;8.78;;
84984;SDS011;75299;50.018;20.014;2024-02-16T12:33:14;12.38;;;8.28;;
84984;SDS011;75299;50.018;20.014;2024-02-16T12:36:32;14.68;;;7.50;;
84984;SDS011;75299;50.018;20.014;2024-02-16T12:39:58;9.95;;;7.13;;
84984;SDS011;75299;50.018;20.014;2024-02-16T12:43:16;11.40;;;7.15;;
84984;SDS011;75299;50.018;20.014;2024-02-16T12:46:33;11.28;;;7.53;;
84984;SDS011;75299;50.018;20.014;2024-02-16T12:49:51;11.63;;;7.75;;
84984;SDS011;75299;50.018;20.014;2024-02-16T12:53:11;15.25;;;7.50;;
84984;SDS011;75299;50.018;20.014;2024-02-16T12:56:28;10.23;;;7.53;;
84984;SDS011;75299;50.018;20.014;2024-02-16T12:59:47;12.43;;;8.30;;
84984;SDS011;75299;50.018;20.014;2024-02-16T13:03:05;18.28;;;11.15;;
84984;SDS011;75299;50.018;20.014;2024-02-16T13:06:22;17.25;;;11.63;;
84984;SDS011;75299;50.018;20.014;2024-02-16T13:09:40;14.50;;;8.50;;
84984;SDS011;75299;50.018;20.014;2024-02-16T13:12:58;16.53;;;8.78;;
84984;SDS011;75299;50.018;20.014;2024-02-16T13:16:16;20.58;;;9.60;;
84984;SDS011;75299;50.018;20.014;2024-02-16T13:19:34;15.80;;;9.03;;
84984;SDS011;75299;50.018;20.014;2024-02-16T13:22:52;13.05;;;7.25;;
84984;SDS011;75299;50.018;20.014;2024-02-16T13:26:09;11.63;;;6.65;;
84984;SDS011;75299;50.018;20.014;2024-02-16T13:29:26;14.45;;;6.38;;
84984;SDS011;75299;50.018;20.014;2024-02-16T13:32:44;11.55;;;6.30;;
84984;SDS011;75299;50.018;20.014;2024-02-16T13:36:02;10.80;;;5.68;;
84984;SDS011;75299;50.018;20.014;2024-02-16T13:39:20;9.58;;;6.38;;
84984;SDS011;75299;50.018;20.014;2024-02-16T13:42:39;10.33;;;6.13;;
84984;SDS011;75299;50.018;20.014;2024-02-16T13:45:57;10.93;;;5.65;;
84984;SDS011;75299;50.018;20.014;2024-02-16T13:49:14;9.65;;;5.65;;
84984;SDS011;75299;50.018;20.014;2024-02-16T13:52:42;11.08;;;6.33;;
84984;SDS011;75299;50.018;20.014;2024-02-16T13:56:20;9.48;;;6.28;;
84984;SDS011;75299;50.018;20.014;2024-02-16T13:59:37;9.35;;;6.58;;
84984;SDS011;75299;50.018;20.014;2024-02-16T14:02:55;8.80;;;5.48;;
84984;SDS011;75299;50.018;20.014;2024-02-16T14:06:12;11.93;;;5.63;;
84984;SDS011;75299;50.018;20.014;2024-02-16T14:09:30;9.85;;;5.60;;
84984;SDS011;75299;50.018;20.014;2024-02-16T14:12:48;8.70;;;4.85;;
84984;SDS011;75299;50.018;20.014;2024-02-16T14:16:06;8.70;;;5.28;;
84984;SDS011;75299;50.018;20.014;2024-02-16T14:19:23;8.13;;;5.20;;
84984;SDS011;75299;50.018;20.014;2024-02-16T14:22:42;12.15;;;7.73;;
84984;SDS011;75299;50.018;20.014;2024-02-16T14:26:00;9.30;;;5.58;;
84984;SDS011;75299;50.018;20.014;2024-02-16T14:29:18;11.23;;;4.98;;
84984;SDS011;75299;50.018;20.014;2024-02-16T14:32:37;13.13;;;5.35;;
84984;SDS011;75299;50.018;20.014;2024-02-16T14:35:57;8.23;;;5.18;;
84984;SDS011;75299;50.018;20.014;2024-02-16T14:39:16;8.05;;;4.68;;
84984;SDS011;75299;50.018;20.014;2024-02-16T14:42:38;13.20;;;5.58;;
84984;SDS011;75299;50.018;20.014;2024-02-16T14:45:59;52.70;;;27.88;;
84984;SDS011;75299;50.018;20.014;2024-02-16T14:49:17;20.45;;;9.05;;
84984;SDS011;75299;50.018;20.014;2024-02-16T14:52:35;13.30;;;5.73;;
84984;SDS011;75299;50.018;20.014;2024-02-16T14:55:53;9.23;;;5.28;;
84984;SDS011;75299;50.018;20.014;2024-02-16T14:59:11;9.25;;;5.20;;
84984;SDS011;75299;50.018;20.014;2024-02-16T15:02:28;8.20;;;4.63;;
84984;SDS011;75299;50.018;20.014;2024-02-16T15:05:46;8.45;;;4.40;;
84984;SDS011;75299;50.018;20.014;2024-02-16T15:09:03;9.98;;;4.98;;
84984;SDS011;75299;50.018;20.014;2024-02-16T15:12:21;11.63;;;5.33;;
84984;SDS011;75299;50.018;20.014;2024-02-16T15:15:39;7.90;;;4.88;;
84984;SDS011;75299;50.018;20.014;2024-02-16T15:18:58;47.23;;;28.00;;
84984;SDS011;75299;50.018;20.014;2024-02-16T15:22:16;28.85;;;14.65;;
84984;SDS011;75299;50.018;20.014;2024-02-16T15:25:37;16.95;;;7.45;;
84984;SDS011;75299;50.018;20.014;2024-02-16T15:28:58;11.55;;;5.65;;
84984;SDS011;75299;50.018;20.014;2024-02-16T15:32:19;9.18;;;5.63;;
84984;SDS011;75299;50.018;20.014;2024-02-16T15:35:37;11.15;;;5.78;;
84984;SDS011;75299;50.018;20.014;2024-02-16T15:38:54;11.95;;;5.83;;
84984;SDS011;75299;50.018;20.014;2024-02-16T15:42:12;8.13;;;5.63;;
84984;SDS011;75299;50.018;20.014;2024-02-16T15:45:35;15.20;;;5.23;;
84984;SDS011;75299;50.018;20.014;2024-02-16T15:48:57;11.88;;;5.73;;
84984;SDS011;75299;50.018;20.014;2024-02-16T15:52:17;11.30;;;5.53;;
84984;SDS011;75299;50.018;20.014;2024-02-16T15:55:34;13.68;;;6.33;;
84984;SDS011;75299;50.018;20.014;2024-02-16T15:58:53;19.08;;;7.38;;
84984;SDS011;75299;50.018;20.014;2024-02-16T16:02:11;18.18;;;8.63;;
84984;SDS011;75299;50.018;20.014;2024-02-16T16:05:29;17.25;;;8.30;;
84984;SDS011;75299;50.018;20.014;2024-02-16T16:08:47;16.50;;;9.08;;
84984;SDS011;75299;50.018;20.014;2024-02-16T16:12:05;23.28;;;10.00;;
84984;SDS011;75299;50.018;20.014;2024-02-16T16:15:23;23.48;;;9.60;;
84984;SDS011;75299;50.018;20.014;2024-02-16T16:18:41;21.80;;;9.95;;
84984;SDS011;75299;50.018;20.014;2024-02-16T16:21:59;17.65;;;9.98;;
84984;SDS011;75299;50.018;20.014;2024-02-16T16:25:16;22.18;;;10.98;;
84984;SDS011;75299;50.018;20.014;2024-02-16T16:28:35;25.20;;;11.43;;
84984;SDS011;75299;50.018;20.014;2024-02-16T16:31:52;25.63;;;12.80;;
84984;SDS011;75299;50.018;20.014;2024-02-16T16:35:13;25.93;;;12.25;;
84984;SDS011;75299;50.018;20.014;2024-02-16T16:38:31;29.53;;;15.13;;
84984;SDS011;75299;50.018;20.014;2024-02-16T16:41:48;24.83;;;13.55;;
84984;SDS011;75299;50.018;20.014;2024-02-16T16:45:07;28.48;;;15.10;;
84984;SDS011;75299;50.018;20.014;2024-02-16T16:48:25;34.08;;;17.60;;
84984;SDS011;75299;50.018;20.014;2024-02-16T16:51:44;27.33;;;14.80;;
84984;SDS011;75299;50.018;20.014;2024-02-16T16:55:02;36.03;;;16.05;;
84984;SDS011;75299;50.018;20.014;2024-02-16T16:58:22;31.00;;;14.98;;
84984;SDS011;75299;50.018;20.014;2024-02-16T17:01:39;29.23;;;15.85;;
84984;SDS011;75299;50.018;20.014;2024-02-16T17:04:57;29.93;;;14.98;;
84984;SDS011;75299;50.018;20.014;2024-02-16T17:08:15;32.85;;;14.98;;
84984;SDS011;75299;50.018;20.014;2024-02-16T17:11:33;42.00;;;14.13;;
84984;SDS011;75299;50.018;20.014;2024-02-16T17:14:53;31.60;;;15.50;;
84984;SDS011;75299;50.018;20.014;2024-02-16T17:18:10;27.45;;;15.10;;
84984;SDS011;75299;50.018;20.014;2024-02-16T17:21:28;35.13;;;15.63;;
84984;SDS011;75299;50.018;20.014;2024-02-16T17:24:45;31.33;;;15.68;;
84984;SDS011;75299;50.018;20.014;2024-02-16T17:28:03;35.78;;;17.65;;
84984;SDS011;75299;50.018;20.014;2024-02-16T17:31:21;32.13;;;16.95;;
84984;SDS011;75299;50.018;20.014;2024-02-16T17:34:38;32.45;;;14.83;;
84984;SDS011;75299;50.018;20.014;2024-02-16T17:37:55;40.13;;;14.40;;
84984;SDS011;75299;50.018;20.014;2024-02-16T17:41:13;35.65;;;13.85;;
84984;SDS011;75299;50.018;20.014;2024-02-16T17:44:35;40.03;;;14.43;;
84984;SDS011;75299;50.018;20.014;2024-02-16T17:47:52;38.50;;;13.78;;
84984;SDS011;75299;50.018;20.014;2024-02-16T17:51:10;40.45;;;14.23;;
84984;SDS011;75299;50.018;20.014;2024-02-16T17:54:27;32.53;;;14.25;;
84984;SDS011;75299;50.018;20.014;2024-02-16T17:57:45;39.33;;;15.15;;
84984;SDS011;75299;50.018;20.014;2024-02-16T18:01:03;41.93;;;14.90;;
84984;SDS011;75299;50.018;20.014;2024-02-16T18:04:21;35.38;;;15.68;;
84984;SDS011;75299;50.018;20.014;2024-02-16T18:07:39;36.60;;;14.85;;
84984;SDS011;75299;50.018;20.014;2024-02-16T18:10:57;40.13;;;17.55;;
84984;SDS011;75299;50.018;20.014;2024-02-16T18:14:15;44.30;;;16.60;;
84984;SDS011;75299;50.018;20.014;2024-02-16T18:17:43;30.10;;;14.68;;
84984;SDS011;75299;50.018;20.014;2024-02-16T18:21:08;45.33;;;17.15;;
84984;SDS011;75299;50.018;20.014;2024-02-16T18:24:28;73.83;;;37.13;;
84984;SDS011;75299;50.018;20.014;2024-02-16T18:27:46;40.75;;;16.95;;
84984;SDS011;75299;50.018;20.014;2024-02-16T18:31:05;36.58;;;15.28;;
84984;SDS011;75299;50.018;20.014;2024-02-16T18:34:23;35.78;;;15.60;;
84984;SDS011;75299;50.018;20.014;2024-02-16T18:37:41;31.25;;;16.05;;
84984;SDS011;75299;50.018;20.014;2024-02-16T18:40:59;38.45;;;16.15;;
84984;SDS011;75299;50.018;20.014;2024-02-16T18:44:16;35.30;;;15.60;;
84984;SDS011;75299;50.018;20.014;2024-02-16T18:47:34;36.68;;;17.35;;
84984;SDS011;75299;50.018;20.014;2024-02-16T18:50:51;45.00;;;17.00;;
84984;SDS011;75299;50.018;20.014;2024-02-16T18:54:09;40.43;;;19.80;;
84984;SDS011;75299;50.018;20.014;2024-02-16T18:57:26;33.23;;;17.20;;
84984;SDS011;75299;50.018;20.014;2024-02-16T19:00:44;43.75;;;18.03;;
84984;SDS011;75299;50.018;20.014;2024-02-16T19:04:01;35.05;;;17.50;;
84984;SDS011;75299;50.018;20.014;2024-02-16T19:07:19;35.28;;;17.00;;